sensor_id;sensor_type;location;lat;lon;timestamp;pressure;altitude;pressure_sealevel;temperature;humidity
35694;BME280;21812;55.536;37.664;2023-02-19T00:01:21;98161.88;;;7.46;39.24
35694;BME280;21812;55.536;37.664;2023-02-19T00:03:52;98167.41;;;6.31;36.70
35694;BME280;21812;55.536;37.664;2023-02-19T00:06:19;98201.41;;;5.37;37.14
35694;BME280;21812;55.536;37.664;2023-02-19T00:08:45;98178.88;;;5.55;42.88
35694;BME280;21812;55.536;37.664;2023-02-19T00:11:13;98158.22;;;5.78;40.70
35694;BME280;21812;55.536;37.664;2023-02-19T00:13:41;98152.50;;;6.23;41.87
35694;BME280;21812;55.536;37.664;2023-02-19T00:16:08;98175.75;;;6.28;41.23
35694;BME280;21812;55.536;37.664;2023-02-19T00:18:34;98176.59;;;5.86;38.84
35694;BME280;21812;55.536;37.664;2023-02-19T00:21:00;98183.50;;;5.46;44.72
35694;BME280;21812;55.536;37.664;2023-02-19T00:23:26;98180.50;;;5.56;40.99
35694;BME280;21812;55.536;37.664;2023-02-19T00:25:53;98176.31;;;5.68;38.46
35694;BME280;21812;55.536;37.664;2023-02-19T00:28:19;98175.94;;;6.19;42.48
35694;BME280;21812;55.536;37.664;2023-02-19T00:30:45;98158.69;;;6.63;40.32
35694;BME280;21812;55.536;37.664;2023-02-19T00:33:10;98158.47;;;7.12;38.96
35694;BME280;21812;55.536;37.664;2023-02-19T00:35:36;98165.41;;;6.59;40.35
35694;BME280;21812;55.536;37.664;2023-02-19T00:38:02;98165.44;;;6.99;40.67
35694;BME280;21812;55.536;37.664;2023-02-19T00:40:28;98149.91;;;6.96;35.42
35694;BME280;21812;55.536;37.664;2023-02-19T00:42:54;98163.09;;;6.23;39.10
35694;BME280;21812;55.536;37.664;2023-02-19T00:45:20;98158.81;;;6.22;39.81
35694;BME280;21812;55.536;37.664;2023-02-19T00:47:46;98162.09;;;6.31;41.56
35694;BME280;21812;55.536;37.664;2023-02-19T00:50:11;98147.25;;;5.81;41.12
35694;BME280;21812;55.536;37.664;2023-02-19T00:52:37;98156.44;;;6.54;39.06
35694;BME280;21812;55.536;37.664;2023-02-19T00:55:03;98156.28;;;5.59;37.04
35694;BME280;21812;55.536;37.664;2023-02-19T00:57:29;98133.25;;;5.53;40.57
35694;BME280;21812;55.536;37.664;2023-02-19T00:59:57;98136.13;;;6.06;37.83
35694;BME280;21812;55.536;37.664;2023-02-19T01:02:23;98137.88;;;5.37;36.61
35694;BME280;21812;55.536;37.664;2023-02-19T01:04:51;98140.88;;;4.99;38.88
35694;BME280;21812;55.536;37.664;2023-02-19T01:07:17;98134.91;;;4.19;38.89
35694;BME280;21812;55.536;37.664;2023-02-19T01:09:43;98133.28;;;3.67;41.99
35694;BME280;21812;55.536;37.664;2023-02-19T01:12:09;98131.25;;;2.42;39.92
35694;BME280;21812;55.536;37.664;2023-02-19T01:14:35;98129.88;;;2.08;48.02
35694;BME280;21812;55.536;37.664;2023-02-19T01:17:00;98132.78;;;2.13;49.43
35694;BME280;21812;55.536;37.664;2023-02-19T01:19:26;98132.28;;;2.18;45.33
35694;BME280;21812;55.536;37.664;2023-02-19T01:21:51;98124.81;;;2.67;43.84
35694;BME280;21812;55.536;37.664;2023-02-19T01:24:17;98121.81;;;2.85;43.02
35694;BME280;21812;55.536;37.664;2023-02-19T01:26:43;98121.41;;;3.11;48.16
35694;BME280;21812;55.536;37.664;2023-02-19T01:29:08;98121.19;;;3.72;40.89
35694;BME280;21812;55.536;37.664;2023-02-19T01:31:35;98116.38;;;3.98;41.17
35694;BME280;21812;55.536;37.664;2023-02-19T01:34:02;98105.84;;;4.19;43.92
35694;BME280;21812;55.536;37.664;2023-02-19T01:36:29;98091.34;;;3.94;41.67
35694;BME280;21812;55.536;37.664;2023-02-19T01:38:59;98103.47;;;4.53;45.57
35694;BME280;21812;55.536;37.664;2023-02-19T01:41:24;98103.44;;;4.46;43.61
35694;BME280;21812;55.536;37.664;2023-02-19T01:46:29;98081.09;;;3.47;38.86
35694;BME280;21812;55.536;37.664;2023-02-19T01:51:42;98095.81;;;5.21;43.87
35694;BME280;21812;55.536;37.664;2023-02-19T01:54:11;98096.19;;;4.55;38.10
35694;BME280;21812;55.536;37.664;2023-02-19T01:56:40;98066.06;;;3.84;41.99
35694;BME280;21812;55.536;37.664;2023-02-19T01:59:07;98102.25;;;4.27;45.27
35694;BME280;21812;55.536;37.664;2023-02-19T02:01:34;98109.72;;;4.45;40.70
35694;BME280;21812;55.536;37.664;2023-02-19T02:04:02;98101.19;;;4.99;44.04
35694;BME280;21812;55.536;37.664;2023-02-19T02:06:40;98090.59;;;5.27;45.38
35694;BME280;21812;55.536;37.664;2023-02-19T02:09:08;98064.06;;;5.21;39.12
35694;BME280;21812;55.536;37.664;2023-02-19T02:11:52;98091.94;;;5.65;40.07
35694;BME280;21812;55.536;37.664;2023-02-19T02:14:21;98092.56;;;6.35;42.93
35694;BME280;21812;55.536;37.664;2023-02-19T02:31:24;98079.16;;;5.27;39.97
35694;BME280;21812;55.536;37.664;2023-02-19T02:33:58;98081.31;;;5.52;40.21
35694;BME280;21812;55.536;37.664;2023-02-19T02:36:33;98066.66;;;4.79;39.04
35694;BME280;21812;55.536;37.664;2023-02-19T02:39:02;98084.38;;;5.48;41.09
35694;BME280;21812;55.536;37.664;2023-02-19T02:41:31;98040.81;;;5.64;40.29
35694;BME280;21812;55.536;37.664;2023-02-19T02:43:57;98077.47;;;6.49;39.61
35694;BME280;21812;55.536;37.664;2023-02-19T02:46:27;98074.91;;;5.87;39.75
35694;BME280;21812;55.536;37.664;2023-02-19T02:48:56;98053.13;;;5.31;37.50
35694;BME280;21812;55.536;37.664;2023-02-19T02:51:35;98036.75;;;5.62;41.67
35694;BME280;21812;55.536;37.664;2023-02-19T02:54:06;98063.78;;;6.99;38.35
35694;BME280;21812;55.536;37.664;2023-02-19T02:56:53;98057.84;;;6.97;34.50
35694;BME280;21812;55.536;37.664;2023-02-19T02:59:25;98066.47;;;6.39;35.02
35694;BME280;21812;55.536;37.664;2023-02-19T03:01:57;98030.09;;;5.93;35.24
35694;BME280;21812;55.536;37.664;2023-02-19T03:10:09;98056.50;;;7.39;37.13
35694;BME280;21812;55.536;37.664;2023-02-19T03:12:37;98058.97;;;7.34;37.47
35694;BME280;21812;55.536;37.664;2023-02-19T03:15:27;98055.44;;;6.22;36.89
35694;BME280;21812;55.536;37.664;2023-02-19T03:18:15;98029.72;;;4.93;36.20
35694;BME280;21812;55.536;37.664;2023-02-19T03:21:03;98056.94;;;4.80;41.91
35694;BME280;21812;55.536;37.664;2023-02-19T03:23:32;98048.50;;;4.41;37.52
35694;BME280;21812;55.536;37.664;2023-02-19T03:26:18;98063.19;;;4.22;43.30
35694;BME280;21812;55.536;37.664;2023-02-19T03:28:51;98055.44;;;5.05;44.46
35694;BME280;21812;55.536;37.664;2023-02-19T03:31:39;98051.66;;;5.70;41.29
35694;BME280;21812;55.536;37.664;2023-02-19T03:34:11;97969.41;;;5.23;40.03
35694;BME280;21812;55.536;37.664;2023-02-19T03:36:43;97984.19;;;4.97;37.02
35694;BME280;21812;55.536;37.664;2023-02-19T03:39:14;98041.22;;;5.06;42.46
35694;BME280;21812;55.536;37.664;2023-02-19T03:47:02;98037.38;;;4.74;43.29
35694;BME280;21812;55.536;37.664;2023-02-19T03:55:53;98034.84;;;5.42;41.30
35694;BME280;21812;55.536;37.664;2023-02-19T03:58:29;98004.28;;;5.33;38.54
35694;BME280;21812;55.536;37.664;2023-02-19T04:01:11;98027.19;;;5.74;43.78
35694;BME280;21812;55.536;37.664;2023-02-19T04:03:46;98024.19;;;6.84;39.24
35694;BME280;21812;55.536;37.664;2023-02-19T04:06:19;97998.91;;;6.68;39.95
35694;BME280;21812;55.536;37.664;2023-02-19T04:08:50;98025.66;;;6.67;36.43
35694;BME280;21812;55.536;37.664;2023-02-19T04:11:18;98028.94;;;6.42;37.94
35694;BME280;21812;55.536;37.664;2023-02-19T04:13:53;98028.59;;;5.57;39.20
35694;BME280;21812;55.536;37.664;2023-02-19T04:16:22;98005.63;;;5.91;40.23
35694;BME280;21812;55.536;37.664;2023-02-19T04:18:52;98024.00;;;5.99;41.33
35694;BME280;21812;55.536;37.664;2023-02-19T04:21:21;97981.75;;;5.02;38.81
35694;BME280;21812;55.536;37.664;2023-02-19T04:23:47;98009.09;;;5.16;40.10
35694;BME280;21812;55.536;37.664;2023-02-19T04:26:14;98022.75;;;5.20;41.41
35694;BME280;21812;55.536;37.664;2023-02-19T04:28:41;98026.75;;;5.51;39.77
35694;BME280;21812;55.536;37.664;2023-02-19T04:31:09;98029.41;;;5.09;36.15
35694;BME280;21812;55.536;37.664;2023-02-19T04:33:35;98021.34;;;4.89;40.93
35694;BME280;21812;55.536;37.664;2023-02-19T04:36:01;98025.59;;;4.83;41.62
35694;BME280;21812;55.536;37.664;2023-02-19T04:38:27;98026.63;;;4.54;41.01
35694;BME280;21812;55.536;37.664;2023-02-19T04:40:52;98027.41;;;4.76;43.07
35694;BME280;21812;55.536;37.664;2023-02-19T04:43:20;98018.16;;;5.00;42.51
35694;BME280;21812;55.536;37.664;2023-02-19T04:45:46;98021.44;;;4.67;40.75
35694;BME280;21812;55.536;37.664;2023-02-19T04:48:11;98034.66;;;3.53;38.32
35694;BME280;21812;55.536;37.664;2023-02-19T04:50:38;98029.88;;;3.27;45.78
35694;BME280;21812;55.536;37.664;2023-02-19T04:53:04;98025.19;;;3.80;41.90
35694;BME280;21812;55.536;37.664;2023-02-19T04:55:30;98017.38;;;4.37;44.24
35694;BME280;21812;55.536;37.664;2023-02-19T04:57:56;98010.00;;;4.60;40.87
35694;BME280;21812;55.536;37.664;2023-02-19T05:00:21;98009.97;;;4.54;41.17
35694;BME280;21812;55.536;37.664;2023-02-19T05:02:47;98011.66;;;4.61;40.94
35694;BME280;21812;55.536;37.664;2023-02-19T05:05:13;98007.59;;;4.65;41.30
35694;BME280;21812;55.536;37.664;2023-02-19T05:07:38;98009.47;;;4.15;43.07
35694;BME280;21812;55.536;37.664;2023-02-19T05:10:04;98009.09;;;3.02;41.22
35694;BME280;21812;55.536;37.664;2023-02-19T05:12:30;98015.22;;;2.20;41.69
35694;BME280;21812;55.536;37.664;2023-02-19T05:14:56;98013.16;;;3.20;44.61
35694;BME280;21812;55.536;37.664;2023-02-19T05:17:21;98005.53;;;3.25;43.48
35694;BME280;21812;55.536;37.664;2023-02-19T05:19:47;98004.19;;;2.99;41.86
35694;BME280;21812;55.536;37.664;2023-02-19T05:22:12;98007.94;;;1.84;41.17
35694;BME280;21812;55.536;37.664;2023-02-19T05:24:38;98005.56;;;1.12;44.47
35694;BME280;21812;55.536;37.664;2023-02-19T05:27:03;98018.19;;;1.25;47.92
35694;BME280;21812;55.536;37.664;2023-02-19T05:29:30;98014.41;;;0.88;45.39
35694;BME280;21812;55.536;37.664;2023-02-19T05:31:56;98010.38;;;0.52;47.21
35694;BME280;21812;55.536;37.664;2023-02-19T05:34:21;98005.63;;;0.56;47.61
35694;BME280;21812;55.536;37.664;2023-02-19T05:36:47;97995.09;;;0.64;46.31
35694;BME280;21812;55.536;37.664;2023-02-19T05:39:13;97991.97;;;0.61;46.67
35694;BME280;21812;55.536;37.664;2023-02-19T05:41:38;97992.38;;;0.33;47.04
35694;BME280;21812;55.536;37.664;2023-02-19T05:44:04;98002.25;;;-0.02;47.70
35694;BME280;21812;55.536;37.664;2023-02-19T05:46:30;97996.84;;;-0.01;49.32
35694;BME280;21812;55.536;37.664;2023-02-19T05:48:56;97999.13;;;0.03;50.08
35694;BME280;21812;55.536;37.664;2023-02-19T05:51:24;98003.13;;;0.63;50.83
35694;BME280;21812;55.536;37.664;2023-02-19T05:53:51;97994.31;;;0.55;45.68
35694;BME280;21812;55.536;37.664;2023-02-19T05:58:52;97997.03;;;0.78;52.60
35694;BME280;21812;55.536;37.664;2023-02-19T06:01:20;97968.22;;;0.93;51.52
35694;BME280;21812;55.536;37.664;2023-02-19T06:03:46;97995.56;;;0.68;45.43
35694;BME280;21812;55.536;37.664;2023-02-19T06:06:13;98001.56;;;0.37;50.59
35694;BME280;21812;55.536;37.664;2023-02-19T06:08:38;98003.00;;;0.56;50.10
35694;BME280;21812;55.536;37.664;2023-02-19T06:11:04;97997.25;;;0.52;51.38
35694;BME280;21812;55.536;37.664;2023-02-19T06:13:30;97999.72;;;0.54;48.92
35694;BME280;21812;55.536;37.664;2023-02-19T06:15:55;97994.88;;;0.74;54.04
35694;BME280;21812;55.536;37.664;2023-02-19T06:18:21;97995.91;;;1.04;47.02
35694;BME280;21812;55.536;37.664;2023-02-19T06:20:47;97996.28;;;0.93;46.58
35694;BME280;21812;55.536;37.664;2023-02-19T06:23:12;97995.00;;;0.89;48.11
35694;BME280;21812;55.536;37.664;2023-02-19T06:25:40;97990.13;;;0.77;48.69
35694;BME280;21812;55.536;37.664;2023-02-19T06:28:06;97996.06;;;0.71;50.98
35694;BME280;21812;55.536;37.664;2023-02-19T06:30:34;97997.81;;;0.23;48.53
35694;BME280;21812;55.536;37.664;2023-02-19T06:33:00;97999.13;;;-0.38;48.96
35694;BME280;21812;55.536;37.664;2023-02-19T06:35:26;98001.44;;;-0.11;50.36
35694;BME280;21812;55.536;37.664;2023-02-19T06:37:51;97994.53;;;0.21;50.04
35694;BME280;21812;55.536;37.664;2023-02-19T06:40:17;97987.25;;;0.39;50.64
35694;BME280;21812;55.536;37.664;2023-02-19T06:42:42;97979.75;;;0.36;49.90
35694;BME280;21812;55.536;37.664;2023-02-19T06:45:08;97977.34;;;0.66;49.13
35694;BME280;21812;55.536;37.664;2023-02-19T06:47:34;97981.53;;;0.84;49.31
35694;BME280;21812;55.536;37.664;2023-02-19T06:49:59;97976.69;;;0.72;47.58
35694;BME280;21812;55.536;37.664;2023-02-19T06:52:26;97977.09;;;0.45;49.44
35694;BME280;21812;55.536;37.664;2023-02-19T06:54:52;97972.66;;;0.45;49.42
35694;BME280;21812;55.536;37.664;2023-02-19T06:57:18;97972.81;;;0.44;53.02
35694;BME280;21812;55.536;37.664;2023-02-19T06:59:44;97970.25;;;0.75;48.03
35694;BME280;21812;55.536;37.664;2023-02-19T07:02:11;97967.00;;;0.73;50.46
35694;BME280;21812;55.536;37.664;2023-02-19T07:04:37;97968.69;;;0.97;53.13
35694;BME280;21812;55.536;37.664;2023-02-19T07:07:03;97964.63;;;1.17;56.08
35694;BME280;21812;55.536;37.664;2023-02-19T07:09:28;97964.84;;;0.76;54.58
35694;BME280;21812;55.536;37.664;2023-02-19T07:11:54;97946.03;;;0.56;52.73
35694;BME280;21812;55.536;37.664;2023-02-19T07:14:20;97956.03;;;0.61;54.88
35694;BME280;21812;55.536;37.664;2023-02-19T07:16:46;97960.19;;;0.87;54.22
35694;BME280;21812;55.536;37.664;2023-02-19T07:19:12;97959.13;;;0.65;50.29
35694;BME280;21812;55.536;37.664;2023-02-19T07:21:39;97953.50;;;0.76;52.64
35694;BME280;21812;55.536;37.664;2023-02-19T07:24:07;97951.50;;;0.38;50.75
35694;BME280;21812;55.536;37.664;2023-02-19T07:26:34;97953.06;;;0.64;52.89
35694;BME280;21812;55.536;37.664;2023-02-19T07:29:00;97946.63;;;0.27;50.91
35694;BME280;21812;55.536;37.664;2023-02-19T07:31:27;97950.22;;;0.26;57.71
35694;BME280;21812;55.536;37.664;2023-02-19T07:33:53;97950.25;;;0.02;50.73
35694;BME280;21812;55.536;37.664;2023-02-19T07:36:20;97947.97;;;-0.02;53.46
35694;BME280;21812;55.536;37.664;2023-02-19T07:38:46;97941.25;;;-0.12;54.03
35694;BME280;21812;55.536;37.664;2023-02-19T07:41:12;97938.56;;;0.21;57.67
35694;BME280;21812;55.536;37.664;2023-02-19T07:43:38;97947.75;;;1.12;60.53
35694;BME280;21812;55.536;37.664;2023-02-19T07:46:09;97933.22;;;1.70;49.26
35694;BME280;21812;55.536;37.664;2023-02-19T07:48:35;97937.50;;;2.84;53.12
35694;BME280;21812;55.536;37.664;2023-02-19T07:51:02;97932.25;;;3.05;56.87
35694;BME280;21812;55.536;37.664;2023-02-19T07:53:29;97935.38;;;2.79;48.41
35694;BME280;21812;55.536;37.664;2023-02-19T07:56:02;97921.75;;;3.70;58.68
35694;BME280;21812;55.536;37.664;2023-02-19T07:58:29;97917.69;;;5.14;50.20
35694;BME280;21812;55.536;37.664;2023-02-19T08:00:55;97917.53;;;4.74;44.32
35694;BME280;21812;55.536;37.664;2023-02-19T08:03:21;97916.53;;;4.05;46.37
35694;BME280;21812;55.536;37.664;2023-02-19T08:05:47;97913.16;;;3.89;54.21
35694;BME280;21812;55.536;37.664;2023-02-19T08:08:14;97914.31;;;4.43;42.88
35694;BME280;21812;55.536;37.664;2023-02-19T08:10:40;97917.03;;;2.86;41.35
35694;BME280;21812;55.536;37.664;2023-02-19T08:13:27;97890.53;;;0.51;45.24
35694;BME280;21812;55.536;37.664;2023-02-19T08:18:27;97931.00;;;-1.14;50.47
35694;BME280;21812;55.536;37.664;2023-02-19T08:20:53;97931.25;;;-1.68;52.24
35694;BME280;21812;55.536;37.664;2023-02-19T08:23:19;97926.25;;;-1.87;52.98
35694;BME280;21812;55.536;37.664;2023-02-19T08:25:48;97930.81;;;-2.16;53.68
35694;BME280;21812;55.536;37.664;2023-02-19T08:28:15;97911.59;;;-2.50;54.37
35694;BME280;21812;55.536;37.664;2023-02-19T08:30:42;97924.09;;;-2.62;55.51
35694;BME280;21812;55.536;37.664;2023-02-19T08:33:17;97924.69;;;-2.68;55.59
35694;BME280;21812;55.536;37.664;2023-02-19T08:35:43;97923.88;;;-2.87;56.41
35694;BME280;21812;55.536;37.664;2023-02-19T08:38:10;97927.72;;;-3.09;56.88
35694;BME280;21812;55.536;37.664;2023-02-19T08:40:36;97925.56;;;-3.13;57.09
35694;BME280;21812;55.536;37.664;2023-02-19T08:43:07;97885.34;;;-3.48;57.77
35694;BME280;21812;55.536;37.664;2023-02-19T08:45:33;97928.38;;;-3.25;57.55
35694;BME280;21812;55.536;37.664;2023-02-19T08:48:00;97921.94;;;-3.30;57.93
35694;BME280;21812;55.536;37.664;2023-02-19T08:50:27;97925.38;;;-3.30;58.45
35694;BME280;21812;55.536;37.664;2023-02-19T08:52:53;97916.91;;;-3.42;58.44
35694;BME280;21812;55.536;37.664;2023-02-19T08:55:19;97917.50;;;-3.48;59.02
35694;BME280;21812;55.536;37.664;2023-02-19T08:57:44;97914.78;;;-3.56;59.29
35694;BME280;21812;55.536;37.664;2023-02-19T09:00:10;97912.44;;;-3.49;59.58
35694;BME280;21812;55.536;37.664;2023-02-19T09:02:36;97912.03;;;-3.55;59.38
35694;BME280;21812;55.536;37.664;2023-02-19T09:05:02;97908.84;;;-3.48;59.16
35694;BME280;21812;55.536;37.664;2023-02-19T09:07:28;97906.69;;;-3.53;58.83
35694;BME280;21812;55.536;37.664;2023-02-19T09:09:53;97902.13;;;-3.51;59.37
35694;BME280;21812;55.536;37.664;2023-02-19T09:12:19;97904.88;;;-3.53;59.10
35694;BME280;21812;55.536;37.664;2023-02-19T09:14:45;97900.13;;;-3.39;59.45
35694;BME280;21812;55.536;37.664;2023-02-19T09:17:11;97894.34;;;-3.33;59.25
35694;BME280;21812;55.536;37.664;2023-02-19T09:19:37;97894.63;;;-3.36;59.12
35694;BME280;21812;55.536;37.664;2023-02-19T09:22:03;97896.03;;;-3.42;59.26
35694;BME280;21812;55.536;37.664;2023-02-19T09:24:29;97886.66;;;-3.35;59.13
35694;BME280;21812;55.536;37.664;2023-02-19T09:26:55;97883.53;;;-3.38;59.38
35694;BME280;21812;55.536;37.664;2023-02-19T09:29:23;97885.75;;;-3.43;59.60
35694;BME280;21812;55.536;37.664;2023-02-19T09:31:48;97884.25;;;-3.46;59.87
35694;BME280;21812;55.536;37.664;2023-02-19T09:34:14;97873.16;;;-3.48;59.97
35694;BME280;21812;55.536;37.664;2023-02-19T09:36:42;97885.34;;;-3.48;60.42
35694;BME280;21812;55.536;37.664;2023-02-19T09:39:08;97865.53;;;-3.41;59.84
35694;BME280;21812;55.536;37.664;2023-02-19T09:41:38;97841.38;;;-3.43;59.51
35694;BME280;21812;55.536;37.664;2023-02-19T09:44:12;97860.72;;;-3.36;58.94
35694;BME280;21812;55.536;37.664;2023-02-19T09:46:46;97875.69;;;-3.38;60.01
35694;BME280;21812;55.536;37.664;2023-02-19T09:52:01;97824.50;;;-3.67;59.82
35694;BME280;21812;55.536;37.664;2023-02-19T09:54:30;97833.06;;;-3.75;60.05
35694;BME280;21812;55.536;37.664;2023-02-19T09:57:00;97820.44;;;-3.79;60.25
35694;BME280;21812;55.536;37.664;2023-02-19T09:59:39;97868.06;;;-3.49;60.49
35694;BME280;21812;55.536;37.664;2023-02-19T10:02:17;97833.88;;;-3.74;60.12
35694;BME280;21812;55.536;37.664;2023-02-19T10:04:44;97837.44;;;-3.75;60.49
35694;BME280;21812;55.536;37.664;2023-02-19T10:07:16;97853.88;;;-3.65;60.44
35694;BME280;21812;55.536;37.664;2023-02-19T10:09:45;97787.03;;;-3.94;60.61
35694;BME280;21812;55.536;37.664;2023-02-19T10:12:29;97818.47;;;-3.67;60.26
35694;BME280;21812;55.536;37.664;2023-02-19T10:15:14;97784.28;;;-3.92;59.86
35694;BME280;21812;55.536;37.664;2023-02-19T10:17:41;97861.09;;;-3.59;60.11
35694;BME280;21812;55.536;37.664;2023-02-19T10:20:19;97810.88;;;-3.88;60.31
35694;BME280;21812;55.536;37.664;2023-02-19T10:22:56;97861.38;;;-3.62;60.75
35694;BME280;21812;55.536;37.664;2023-02-19T10:25:23;97849.53;;;-3.74;60.20
35694;BME280;21812;55.536;37.664;2023-02-19T10:27:48;97858.03;;;-3.72;60.89
35694;BME280;21812;55.536;37.664;2023-02-19T10:30:23;97863.72;;;-3.59;60.88
35694;BME280;21812;55.536;37.664;2023-02-19T10:33:11;97860.69;;;-3.54;60.73
35694;BME280;21812;55.536;37.664;2023-02-19T10:38:18;97822.44;;;-3.45;60.69
35694;BME280;21812;55.536;37.664;2023-02-19T10:40:45;97851.56;;;-3.04;59.73
35694;BME280;21812;55.536;37.664;2023-02-19T10:43:34;97829.16;;;-3.07;60.10
35694;BME280;21812;55.536;37.664;2023-02-19T10:46:15;97846.59;;;-2.71;59.19
35694;BME280;21812;55.536;37.664;2023-02-19T10:48:48;97816.38;;;-2.92;58.70
35694;BME280;21812;55.536;37.664;2023-02-19T10:51:14;97845.59;;;-2.52;58.88
35694;BME280;21812;55.536;37.664;2023-02-19T10:53:50;97827.66;;;-2.47;58.22
35694;BME280;21812;55.536;37.664;2023-02-19T10:56:24;97848.97;;;-2.08;57.87
35694;BME280;21812;55.536;37.664;2023-02-19T10:58:51;97846.41;;;-2.00;56.89
35694;BME280;21812;55.536;37.664;2023-02-19T11:01:22;97829.44;;;-1.87;57.23
35694;BME280;21812;55.536;37.664;2023-02-19T11:04:13;97845.25;;;-1.97;56.98
35694;BME280;21812;55.536;37.664;2023-02-19T11:06:36;97844.47;;;-2.24;56.77
35694;BME280;21812;55.536;37.664;2023-02-19T11:09:02;97836.59;;;-2.32;57.59
35694;BME280;21812;55.536;37.664;2023-02-19T11:11:37;97827.34;;;-2.44;57.67
35694;BME280;21812;55.536;37.664;2023-02-19T11:14:15;97801.16;;;-2.79;58.18
35694;BME280;21812;55.536;37.664;2023-02-19T11:16:50;97836.88;;;-2.61;58.47
35694;BME280;21812;55.536;37.664;2023-02-19T11:19:26;97836.97;;;-2.71;58.82
35694;BME280;21812;55.536;37.664;2023-02-19T11:21:53;97812.06;;;-3.01;58.68
35694;BME280;21812;55.536;37.664;2023-02-19T11:26:50;97828.88;;;-2.60;58.71
35694;BME280;21812;55.536;37.664;2023-02-19T11:29:19;97825.03;;;-2.21;57.75
35694;BME280;21812;55.536;37.664;2023-02-19T11:31:46;97827.72;;;-2.05;57.44
35694;BME280;21812;55.536;37.664;2023-02-19T11:36:47;97824.28;;;-2.40;56.48
35694;BME280;21812;55.536;37.664;2023-02-19T11:39:25;97814.41;;;-2.46;56.72
35694;BME280;21812;55.536;37.664;2023-02-19T12:09:41;97818.38;;;-2.86;57.00
35694;BME280;21812;55.536;37.664;2023-02-19T12:16:18;97813.66;;;-3.08;57.40
35694;BME280;21812;55.536;37.664;2023-02-19T12:21:34;97814.03;;;-3.21;58.24
35694;BME280;21812;55.536;37.664;2023-02-19T12:32:52;97769.78;;;-3.59;58.27
35694;BME280;21812;55.536;37.664;2023-02-19T12:38:19;97822.97;;;-3.24;58.94
35694;BME280;21812;55.536;37.664;2023-02-19T12:43:39;97807.38;;;-3.16;58.19
35694;BME280;21812;55.536;37.664;2023-02-19T12:46:12;97817.91;;;-3.25;58.42
35694;BME280;21812;55.536;37.664;2023-02-19T12:51:22;97771.28;;;-3.38;58.05
35694;BME280;21812;55.536;37.664;2023-02-19T12:54:01;97809.19;;;-3.34;58.56
35694;BME280;21812;55.536;37.664;2023-02-19T12:56:38;97830.88;;;-3.51;59.27
35694;BME280;21812;55.536;37.664;2023-02-19T12:59:14;97830.59;;;-3.76;59.86
35694;BME280;21812;55.536;37.664;2023-02-19T13:01:51;97813.69;;;-4.00;60.13
35694;BME280;21812;55.536;37.664;2023-02-19T13:07:15;97811.28;;;-4.11;60.68
35694;BME280;21812;55.536;37.664;2023-02-19T13:09:54;97795.50;;;-4.19;61.08
35694;BME280;21812;55.536;37.664;2023-02-19T13:12:27;97839.38;;;-4.05;61.27
35694;BME280;21812;55.536;37.664;2023-02-19T13:15:00;97838.13;;;-4.01;62.04
35694;BME280;21812;55.536;37.664;2023-02-19T13:19:59;97801.44;;;-4.27;62.00
35694;BME280;21812;55.536;37.664;2023-02-19T13:22:34;97828.22;;;-3.97;62.54
35694;BME280;21812;55.536;37.664;2023-02-19T13:25:21;97830.16;;;-3.99;62.78
35694;BME280;21812;55.536;37.664;2023-02-19T13:36:13;97833.47;;;-4.07;63.52
35694;BME280;21812;55.536;37.664;2023-02-19T13:38:46;97833.19;;;-4.04;63.67
35694;BME280;21812;55.536;37.664;2023-02-19T13:41:18;97809.47;;;-4.10;63.74
35694;BME280;21812;55.536;37.664;2023-02-19T13:43:44;97828.38;;;-3.99;63.48
35694;BME280;21812;55.536;37.664;2023-02-19T13:46:13;97782.38;;;-4.27;63.86
35694;BME280;21812;55.536;37.664;2023-02-19T13:48:41;97816.72;;;-4.04;63.85
35694;BME280;21812;55.536;37.664;2023-02-19T13:59:24;97825.09;;;-3.73;63.99
35694;BME280;21812;55.536;37.664;2023-02-19T14:04:22;97806.97;;;-3.75;63.29
35694;BME280;21812;55.536;37.664;2023-02-19T14:20:38;97802.09;;;-3.87;64.49
35694;BME280;21812;55.536;37.664;2023-02-19T14:25:45;97797.06;;;-3.99;64.74
35694;BME280;21812;55.536;37.664;2023-02-19T14:33:19;97795.72;;;-4.03;64.67
35694;BME280;21812;55.536;37.664;2023-02-19T14:35:50;97810.59;;;-3.04;72.46
35694;BME280;21812;55.536;37.664;2023-02-19T14:38:21;97762.47;;;-1.64;72.21
35694;BME280;21812;55.536;37.664;2023-02-19T14:40:48;97786.84;;;0.16;68.59
35694;BME280;21812;55.536;37.664;2023-02-19T14:43:16;97771.03;;;2.14;65.92
35694;BME280;21812;55.536;37.664;2023-02-19T14:45:51;97740.09;;;2.38;59.31
35694;BME280;21812;55.536;37.664;2023-02-19T14:48:40;97765.81;;;3.43;50.01
35694;BME280;21812;55.536;37.664;2023-02-19T14:53:53;97764.50;;;3.32;70.00
35694;BME280;21812;55.536;37.664;2023-02-19T14:56:25;97760.66;;;3.63;59.87
35694;BME280;21812;55.536;37.664;2023-02-19T15:01:40;97764.34;;;3.69;56.63
35694;BME280;21812;55.536;37.664;2023-02-19T15:04:22;97742.63;;;3.67;58.22
35694;BME280;21812;55.536;37.664;2023-02-19T15:06:48;97767.06;;;3.47;48.12
35694;BME280;21812;55.536;37.664;2023-02-19T15:09:18;97765.66;;;3.23;50.53
35694;BME280;21812;55.536;37.664;2023-02-19T15:11:44;97766.22;;;3.19;55.78
35694;BME280;21812;55.536;37.664;2023-02-19T15:14:19;97737.69;;;3.29;52.91
35694;BME280;21812;55.536;37.664;2023-02-19T15:16:47;97759.72;;;2.50;47.48
35694;BME280;21812;55.536;37.664;2023-02-19T15:19:14;97756.00;;;1.93;51.25
35694;BME280;21812;55.536;37.664;2023-02-19T15:21:46;97697.03;;;1.58;53.80
35694;BME280;21812;55.536;37.664;2023-02-19T15:24:14;97721.53;;;2.24;51.82
35694;BME280;21812;55.536;37.664;2023-02-19T15:26:45;97767.66;;;2.20;49.77
35694;BME280;21812;55.536;37.664;2023-02-19T15:29:13;97756.78;;;2.23;49.57
35694;BME280;21812;55.536;37.664;2023-02-19T15:31:50;97719.69;;;1.88;48.25
35694;BME280;21812;55.536;37.664;2023-02-19T15:34:24;97730.34;;;2.74;54.42
35694;BME280;21812;55.536;37.664;2023-02-19T15:36:55;97712.06;;;3.16;47.09
35694;BME280;21812;55.536;37.664;2023-02-19T15:39:25;97719.38;;;3.21;50.38
35694;BME280;21812;55.536;37.664;2023-02-19T15:41:56;97705.56;;;3.19;53.30
35694;BME280;21812;55.536;37.664;2023-02-19T15:45:02;97730.16;;;2.98;53.81